Time;durP1;ratioP1;P1;durP2;ratioP2;P2;SDS_P1;SDS_P2;PMS_P1;PMS_P2;Temp;Humidity;BMP_temperature;BMP_pressure;BME280_temperature;BME280_humidity;BME280_pressure;Samples;Min_cycle;Max_cycle;Signal;HPM_P1;HPM_P2
2024/02/11 00:01:53;;;;;;;18.27;14.32;;;;;;;8.73;100.00;69364.63;5072395;28;20419;-51
2024/02/11 00:04:21;;;;;;;18.48;14.55;;;;;;;8.70;100.00;69352.72;5069890;28;20554;-52
2024/02/11 00:06:51;;;;;;;18.60;15.05;;;;;;;8.68;100.00;69356.19;5070366;28;20116;-49
2024/02/11 00:09:20;;;;;;;18.42;14.60;;;;;;;8.68;100.00;69356.19;5072756;28;20529;-52
2024/02/11 00:11:48;;;;;;;17.15;14.07;;;;;;;8.73;100.00;69359.41;5072701;28;20046;-50
2024/02/11 00:14:16;;;;;;;17.60;14.63;;;;;;;8.72;100.00;69360.28;5072964;28;20049;-61
2024/02/11 00:16:45;;;;;;;17.20;14.07;;;;;;;8.70;100.00;69357.94;5072903;28;20127;-60
2024/02/11 00:19:13;;;;;;;17.92;14.27;;;;;;;8.68;100.00;69358.22;5072849;28;20472;-60
2024/02/11 00:21:42;;;;;;;19.20;14.82;;;;;;;8.63;100.00;69345.75;5072963;28;20046;-60
2024/02/11 00:24:13;;;;;;;18.63;14.95;;;;;;;8.66;100.00;69355.88;5071432;28;20044;-60
2024/02/11 00:26:42;;;;;;;18.58;14.82;;;;;;;8.67;100.00;69351.84;5069487;28;20056;-60
2024/02/11 00:29:10;;;;;;;18.75;14.88;;;;;;;8.67;100.00;69352.44;5070999;28;20127;-60
2024/02/11 00:31:39;;;;;;;20.08;14.98;;;;;;;8.68;100.00;69355.59;5070762;28;20137;-60
2024/02/11 00:34:07;;;;;;;17.90;14.82;;;;;;;8.70;100.00;69358.53;5071718;28;20041;-60
2024/02/11 00:36:36;;;;;;;17.60;14.25;;;;;;;8.71;100.00;69359.69;5073154;28;20533;-60
2024/02/11 00:39:05;;;;;;;19.20;14.50;;;;;;;8.71;100.00;69359.69;5072823;28;20527;-60
2024/02/11 00:41:40;;;;;;;19.90;14.98;;;;;;;8.75;100.00;69364.34;5072652;28;20123;-61
2024/02/11 00:44:11;;;;;;;16.92;14.45;;;;;;;8.75;100.00;69361.16;5071185;28;20469;-61
2024/02/11 00:46:40;;;;;;;16.95;14.45;;;;;;;8.80;100.00;69369.59;5072070;28;20045;-61
2024/02/11 00:49:09;;;;;;;19.70;15.38;;;;;;;8.74;100.00;69363.19;5071725;28;20048;-60
2024/02/11 00:51:37;;;;;;;17.63;14.27;;;;;;;8.77;100.00;69363.50;5071235;28;20040;-60
2024/02/11 00:54:05;;;;;;;17.73;14.05;;;;;;;8.75;100.00;69363.75;5072515;28;20076;-60
2024/02/11 00:56:35;;;;;;;17.90;15.10;;;;;;;8.71;100.00;69357.09;5070714;28;20055;-60
2024/02/11 00:59:03;;;;;;;17.92;13.93;;;;;;;8.75;100.00;69364.34;5071037;28;20179;-59
2024/02/11 01:01:31;;;;;;;18.27;14.23;;;;;;;8.73;100.00;69364.63;5070890;28;20051;-60
2024/02/11 01:03:59;;;;;;;19.27;14.68;;;;;;;8.81;100.00;69368.16;5072625;28;20078;-60
2024/02/11 01:06:27;;;;;;;18.17;14.52;;;;;;;8.77;100.00;69366.69;5070981;28;20503;-60
2024/02/11 01:08:55;;;;;;;19.60;14.88;;;;;;;8.74;100.00;69365.19;5071426;28;20400;-61
2024/02/11 01:11:24;;;;;;;17.70;14.20;;;;;;;8.73;100.00;69367.22;5072462;28;20040;-61
2024/02/11 01:13:54;;;;;;;18.02;14.05;;;;;;;8.70;100.00;69358.53;5072295;28;20106;-60
2024/02/11 01:16:21;;;;;;;18.27;14.82;;;;;;;8.76;100.00;69364.94;5072165;28;20051;-60
2024/02/11 01:18:49;;;;;;;18.33;15.50;;;;;;;8.74;100.00;69363.19;5073843;28;20102;-60
2024/02/11 01:21:18;;;;;;;18.63;14.63;;;;;;;8.72;100.00;69358.25;5075261;28;20044;-60
2024/02/11 01:23:47;;;;;;;19.60;14.30;;;;;;;8.72;100.00;69363.44;5075172;28;20488;-60
2024/02/11 01:26:15;;;;;;;19.25;15.25;;;;;;;8.68;100.00;69353.00;5074711;28;20434;-60
2024/02/11 01:28:44;;;;;;;18.88;15.00;;;;;;;8.67;100.00;69354.44;5076130;28;20519;-60
2024/02/11 01:31:14;;;;;;;19.40;14.80;;;;;;;8.66;100.00;69351.25;5075913;28;20443;-60
2024/02/11 01:33:43;;;;;;;17.77;13.93;;;;;;;8.60;100.00;69347.47;5075733;28;20041;-60
2024/02/11 01:36:12;;;;;;;19.95;15.15;;;;;;;8.63;100.00;69350.94;5074184;28;20419;-61
2024/02/11 01:38:40;;;;;;;18.75;15.00;;;;;;;8.58;100.00;69347.72;5074798;28;20752;-60
2024/02/11 01:41:08;;;;;;;21.15;15.30;;;;;;;8.63;100.00;69350.94;5073957;28;20124;-60
2024/02/11 01:43:39;;;;;;;18.23;14.90;;;;;;;8.61;100.00;69348.03;5074486;28;20094;-61
2024/02/11 01:46:07;;;;;;;20.52;15.48;;;;;;;8.54;100.00;69342.47;5074301;28;20055;-59
2024/02/11 01:48:37;;;;;;;18.35;14.63;;;;;;;8.56;100.00;69342.78;5074305;28;20106;-60
2024/02/11 01:51:06;;;;;;;18.02;14.35;;;;;;;8.55;100.00;69341.03;5073842;28;20068;-60
2024/02/11 01:53:36;;;;;;;17.48;15.15;;;;;;;8.55;100.00;69341.63;5074316;28;20467;-61
2024/02/11 01:56:06;;;;;;;19.40;14.25;;;;;;;8.53;100.00;69336.69;5073354;28;20127;-60
2024/02/11 01:58:36;;;;;;;17.40;14.55;;;;;;;8.48;100.00;69333.47;5074061;28;20068;-60
2024/02/11 02:01:05;;;;;;;18.30;14.93;;;;;;;8.48;100.00;69330.28;5074289;28;20044;-61
2024/02/11 02:03:38;;;;;;;17.88;14.35;;;;;;;8.46;100.00;69331.13;5074531;28;20063;-61
2024/02/11 02:06:07;;;;;;;20.08;15.80;;;;;;;8.44;100.00;69323.59;5073921;28;20407;-60
2024/02/11 02:08:35;;;;;;;18.95;14.77;;;;;;;8.42;100.00;69326.44;5073902;28;20136;-60
2024/02/11 02:11:04;;;;;;;18.33;14.57;;;;;;;8.44;100.00;69326.19;5071870;28;20072;-59
2024/02/11 02:13:33;;;;;;;16.88;13.98;;;;;;;8.42;100.00;69326.44;5073618;28;20048;-60
2024/02/11 02:16:01;;;;;;;17.10;14.70;;;;;;;8.43;100.00;69327.63;5073611;28;20568;-60
2024/02/11 02:18:34;;;;;;;19.20;15.23;;;;;;;8.40;100.00;69321.53;5073375;28;20047;-60
2024/02/11 02:21:06;;;;;;;19.90;15.25;;;;;;;8.41;100.00;69320.09;5073373;28;20041;-60
2024/02/11 02:23:36;;;;;;;18.40;15.80;;;;;;;8.41;100.00;69320.69;5074550;28;20115;-61
2024/02/11 02:26:07;;;;;;;18.90;14.57;;;;;;;8.42;100.00;69323.84;5072583;28;20480;-60
2024/02/11 02:28:37;;;;;;;20.02;15.88;;;;;;;8.39;100.00;69322.97;5073643;28;20530;-60
2024/02/11 02:31:05;;;;;;;19.58;14.48;;;;;;;8.47;100.00;69332.31;5073071;28;20068;-60
2024/02/11 02:33:34;;;;;;;20.80;15.32;;;;;;;8.44;100.00;69326.19;5073511;28;20063;-60
2024/02/11 02:36:02;;;;;;;21.00;15.50;;;;;;;8.44;100.00;69334.56;5072782;28;20056;-60
2024/02/11 02:38:31;;;;;;;17.67;14.68;;;;;;;8.44;100.00;69329.38;5073136;28;20499;-61
2024/02/11 02:41:00;;;;;;;18.38;14.65;;;;;;;8.40;100.00;69324.13;5073099;28;20044;-61
2024/02/11 02:43:32;;;;;;;19.02;15.57;;;;;;;8.38;100.00;69319.78;5073342;28;20131;-61
2024/02/11 02:46:00;;;;;;;18.20;14.07;;;;;;;8.42;100.00;69326.44;5072987;28;20507;-61
2024/02/11 02:48:31;;;;;;;18.40;15.07;;;;;;;8.40;100.00;69324.13;5073083;28;20044;-60
2024/02/11 02:51:00;;;;;;;19.10;15.27;;;;;;;8.40;100.00;69321.53;5072691;28;20068;-60
2024/02/11 02:53:32;;;;;;;17.92;14.75;;;;;;;8.37;100.00;69320.63;5072858;28;20102;-60
2024/02/11 02:56:01;;;;;;;18.75;14.82;;;;;;;8.36;100.00;69316.88;5072160;28;20048;-61
2024/02/11 02:58:29;;;;;;;19.05;15.48;;;;;;;8.38;100.00;69319.78;5072707;28;20048;-61
2024/02/11 03:01:00;;;;;;;18.60;14.75;;;;;;;8.37;100.00;69320.63;5072381;28;20044;-61
2024/02/11 03:03:31;;;;;;;18.38;15.07;;;;;;;8.34;100.00;69317.13;5072558;28;20110;-60
2024/02/11 03:05:59;;;;;;;20.30;15.40;;;;;;;8.34;100.00;69314.53;5071879;28;20049;-61
2024/02/11 03:08:27;;;;;;;18.88;14.90;;;;;;;8.39;100.00;69320.94;5071834;28;20557;-60
2024/02/11 03:10:55;;;;;;;19.13;14.90;;;;;;;8.35;100.00;69318.31;5072826;28;20052;-60
2024/02/11 03:13:25;;;;;;;18.30;14.93;;;;;;;8.32;100.00;69314.78;5073617;28;20119;-60
2024/02/11 03:15:53;;;;;;;19.73;15.00;;;;;;;8.35;100.00;69313.09;5072266;28;20094;-60
2024/02/11 03:18:22;;;;;;;17.65;14.52;;;;;;;8.33;100.00;69315.97;5072684;28;20052;-60
2024/02/11 03:20:50;;;;;;;17.15;14.68;;;;;;;8.32;100.00;69312.19;5072243;28;20056;-61
2024/02/11 03:23:18;;;;;;;18.73;15.77;;;;;;;8.29;100.00;69312.47;5072092;28;20041;-60
2024/02/11 03:25:47;;;;;;;19.15;15.75;;;;;;;8.27;100.00;69306.97;5071248;28;20514;-61
2024/02/11 03:28:16;;;;;;;17.98;14.57;;;;;;;8.31;100.00;69311.03;5073264;28;20499;-61
2024/02/11 03:30:45;;;;;;;17.83;15.05;;;;;;;8.31;100.00;69311.63;5072205;28;20047;-60
2024/02/11 03:33:17;;;;;;;18.13;15.55;;;;;;;8.33;100.00;69313.38;5072014;28;20440;-60
2024/02/11 03:35:46;;;;;;;17.88;14.35;;;;;;;8.31;100.00;69311.03;5073129;28;20127;-60
2024/02/11 03:38:16;;;;;;;17.55;14.80;;;;;;;8.29;100.00;69309.88;5073458;28;20048;-60
2024/02/11 03:40:44;;;;;;;18.25;14.82;;;;;;;8.28;100.00;69308.69;5070461;28;20053;-60
2024/02/11 03:43:13;;;;;;;18.60;14.38;;;;;;;8.29;100.00;69312.47;5071225;28;20061;-60
2024/02/11 03:45:41;;;;;;;18.67;15.05;;;;;;;8.23;100.00;69299.69;5071843;28;20044;-61
2024/02/11 03:48:12;;;;;;;17.73;15.10;;;;;;;8.26;100.00;69311.00;5071583;28;20125;-61
2024/02/11 03:50:40;;;;;;;18.65;15.05;;;;;;;8.29;100.00;69311.91;5071370;28;20523;-60
2024/02/11 03:53:09;;;;;;;19.17;14.52;;;;;;;8.29;100.00;69309.31;5071569;28;20506;-60
2024/02/11 03:55:38;;;;;;;19.52;15.20;;;;;;;8.27;100.00;69312.16;5070810;28;20448;-59
2024/02/11 03:58:06;;;;;;;19.33;15.60;;;;;;;8.28;100.00;69308.13;5071897;28;20522;-60
2024/02/11 04:00:34;;;;;;;20.52;14.70;;;;;;;8.29;100.00;69309.88;5072340;28;20052;-60
2024/02/11 04:03:02;;;;;;;17.27;14.90;;;;;;;8.29;100.00;69312.47;5071631;28;20082;-60
2024/02/11 04:05:32;;;;;;;17.73;14.73;;;;;;;8.26;100.00;69303.19;5069604;28;20056;-60
2024/02/11 04:08:07;;;;;;;18.63;15.80;;;;;;;8.26;100.00;69308.97;5071443;28;20083;-61
2024/02/11 04:10:36;;;;;;;18.80;15.15;;;;;;;8.26;100.00;69308.38;5071103;28;20054;-61
2024/02/11 04:13:05;;;;;;;17.70;15.02;;;;;;;8.27;100.00;69306.97;5072475;28;20044;-61
2024/02/11 04:15:35;;;;;;;17.15;14.73;;;;;;;8.24;100.00;69306.06;5071710;28;20045;-61
2024/02/11 04:18:10;;;;;;;18.25;14.98;;;;;;;8.22;100.00;69306.31;5071368;28;20523;-60
2024/02/11 04:20:43;;;;;;;19.20;15.75;;;;;;;8.21;100.00;69300.56;5072166;28;20072;-60
2024/02/11 04:23:13;;;;;;;19.93;14.70;;;;;;;8.21;100.00;69303.16;5071213;28;20056;-60
2024/02/11 04:25:45;;;;;;;17.95;15.10;;;;;;;8.21;100.00;69305.19;5070881;28;20088;-60
2024/02/11 04:28:13;;;;;;;17.92;14.85;;;;;;;8.19;100.00;69297.63;5071608;28;20055;-60
2024/02/11 04:30:43;;;;;;;16.90;14.45;;;;;;;8.19;100.00;69300.25;5071384;28;20495;-60
2024/02/11 04:33:14;;;;;;;19.48;15.57;;;;;;;8.18;100.00;69299.06;5071498;28;20080;-60
2024/02/11 04:35:46;;;;;;;19.02;14.43;;;;;;;8.17;100.00;69301.09;5072144;28;20504;-59
2024/02/11 04:38:14;;;;;;;17.52;14.48;;;;;;;8.17;100.00;69295.91;5071133;28;20060;-61
2024/02/11 04:40:46;;;;;;;18.35;14.45;;;;;;;8.15;100.00;69295.59;5070551;28;20712;-60
2024/02/11 04:43:14;;;;;;;17.73;14.32;;;;;;;8.15;100.00;69296.16;5072442;28;20052;-60
2024/02/11 04:45:42;;;;;;;17.33;14.10;;;;;;;8.15;100.00;69290.38;5072215;28;20049;-60
2024/02/11 04:48:12;;;;;;;18.23;14.55;;;;;;;8.13;100.00;69294.41;5070746;28;20045;-60
2024/02/11 04:50:40;;;;;;;19.48;14.18;;;;;;;8.12;100.00;69295.25;5071605;28;20358;-59
2024/02/11 04:53:10;;;;;;;19.38;13.80;;;;;;;8.13;100.00;69291.25;5072029;28;20388;-60
2024/02/11 04:55:43;;;;;;;17.42;14.63;;;;;;;8.11;100.00;69286.91;5073630;28;20443;-60
2024/02/11 04:58:14;;;;;;;16.85;14.77;;;;;;;8.10;100.00;69290.91;5074522;28;20036;-60
2024/02/11 05:00:46;;;;;;;;;;;;;;;8.09;100.00;69289.75;5075881;28;20120;-60
2024/02/11 05:03:17;;;;;;;16.80;13.55;;;;;;;8.04;100.00;69286.53;5076346;28;19966;-60
2024/02/11 05:05:47;;;;;;;17.85;14.77;;;;;;;8.02;100.00;69283.63;5074906;28;20048;-60
2024/02/11 05:08:17;;;;;;;17.27;14.57;;;;;;;8.05;100.00;69284.53;5074854;28;20073;-60
2024/02/11 05:10:51;;;;;;;18.90;15.52;;;;;;;8.05;100.00;69281.91;5076224;28;20076;-59
2024/02/11 05:13:22;;;;;;;17.52;15.00;;;;;;;8.04;100.00;69283.34;5076314;28;20496;-59
2024/02/11 05:15:57;;;;;;;19.17;15.73;;;;;;;8.05;100.00;69281.91;5075976;28;20045;-60
2024/02/11 05:18:28;;;;;;;18.52;15.35;;;;;;;8.04;100.00;69283.91;5074463;28;20060;-60
2024/02/11 05:20:57;;;;;;;19.33;15.75;;;;;;;8.04;100.00;69283.91;5073453;28;20057;-59
2024/02/11 05:23:29;;;;;;;19.02;15.05;;;;;;;8.03;100.00;69279.56;5074454;28;20407;-61
2024/02/11 05:25:59;;;;;;;18.40;15.77;;;;;;;8.02;100.00;69281.03;5074791;28;20048;-59
2024/02/11 05:28:34;;;;;;;16.70;13.95;;;;;;;8.02;100.00;69283.63;5076517;28;20048;-60
2024/02/11 05:31:02;;;;;;;19.33;15.38;;;;;;;8.02;100.00;69281.59;5075812;28;20051;-59
2024/02/11 05:33:31;;;;;;;20.73;16.13;;;;;;;8.03;100.00;69280.19;5075987;28;20087;-61
2024/02/11 05:36:04;;;;;;;19.15;15.43;;;;;;;8.04;100.00;69283.34;5074851;28;20403;-60
2024/02/11 05:38:39;;;;;;;20.30;16.00;;;;;;;8.04;100.00;69280.75;5074188;28;20613;-61
2024/02/11 05:41:07;;;;;;;20.35;16.55;;;;;;;8.08;100.00;69288.59;5075252;28;20373;-61
2024/02/11 05:43:36;;;;;;;20.33;15.98;;;;;;;8.06;100.00;69288.28;5073943;28;20139;-60
2024/02/11 05:46:05;;;;;;;20.80;16.45;;;;;;;8.07;100.00;69290.03;5074000;28;20408;-60
2024/02/11 05:48:33;;;;;;;23.17;17.80;;;;;;;8.05;100.00;69285.09;5073709;28;20692;-60
2024/02/11 05:51:01;;;;;;;22.40;17.65;;;;;;;8.10;100.00;69292.94;5074749;28;20105;-60
2024/02/11 05:53:29;;;;;;;22.50;17.50;;;;;;;8.08;100.00;69288.59;5073924;28;20134;-60
2024/02/11 05:56:00;;;;;;;20.92;17.73;;;;;;;8.06;100.00;69288.28;5072963;28;20399;-60
2024/02/11 05:58:29;;;;;;;25.13;18.13;;;;;;;8.08;100.00;69288.59;5074344;28;20059;-60
2024/02/11 06:00:57;;;;;;;21.80;18.20;;;;;;;8.09;100.00;69289.75;5072825;28;20048;-60
2024/02/11 06:03:25;;;;;;;20.73;17.77;;;;;;;8.11;100.00;69291.50;5074375;28;20539;-60
2024/02/11 06:05:54;;;;;;;24.75;19.20;;;;;;;8.09;100.00;69283.97;5073686;28;20048;-60
2024/02/11 06:08:22;;;;;;;24.70;19.60;;;;;;;8.15;100.00;69292.97;5073504;28;20044;-60
2024/02/11 06:10:51;;;;;;;27.02;19.17;;;;;;;8.13;100.00;69293.84;5071989;28;20510;-59
2024/02/11 06:13:21;;;;;;;24.25;20.10;;;;;;;8.17;100.00;69295.91;5074907;28;20047;-59
2024/02/11 06:15:49;;;;;;;24.42;19.30;;;;;;;8.22;100.00;69301.72;5075111;28;20040;-60
2024/02/11 06:18:17;;;;;;;25.40;20.65;;;;;;;8.25;100.00;69305.22;5075044;28;20059;-60
2024/02/11 06:20:46;;;;;;;26.52;19.30;;;;;;;8.20;100.00;69304.00;5073495;28;20052;-60
2024/02/11 06:23:19;;;;;;;25.48;19.45;;;;;;;8.21;100.00;69299.97;5073261;28;20036;-60
2024/02/11 06:25:57;;;;;;;27.08;19.77;;;;;;;8.17;100.00;69297.91;5072502;28;20056;-60
2024/02/11 06:28:27;;;;;;;26.45;19.70;;;;;;;8.19;100.00;69300.25;5073033;28;20387;-60
2024/02/11 06:30:55;;;;;;;28.58;20.33;;;;;;;8.20;100.00;69301.97;5074108;28;20075;-60
2024/02/11 06:33:23;;;;;;;30.23;21.00;;;;;;;8.22;100.00;69301.72;5074924;28;20040;-60
2024/02/11 06:35:51;;;;;;;28.90;20.23;;;;;;;8.26;100.00;69303.78;5074642;28;20036;-60
2024/02/11 06:38:20;;;;;;;29.48;20.23;;;;;;;8.27;100.00;69304.34;5074697;28;20058;-60
2024/02/11 06:40:48;;;;;;;27.42;19.00;;;;;;;8.23;100.00;69305.47;5073156;28;20052;-60
2024/02/11 06:43:17;;;;;;;26.20;18.70;;;;;;;8.24;100.00;69306.66;5072367;28;20048;-60
2024/02/11 06:45:46;;;;;;;26.52;18.65;;;;;;;8.27;100.00;69310.13;5072928;28;20054;-60
2024/02/11 06:48:16;;;;;;;25.23;18.50;;;;;;;8.26;100.00;69306.38;5074196;28;20052;-60
2024/02/11 06:50:44;;;;;;;20.05;13.90;;;;;;;8.22;100.00;69304.31;5074427;28;20048;-59
2024/02/11 06:53:13;;;;;;;12.55;8.25;;;;;;;8.23;100.00;69304.91;5074042;28;20051;-60
2024/02/11 06:55:41;;;;;;;10.70;6.63;;;;;;;8.15;100.00;69292.97;5072169;28;20123;-59
2024/02/11 06:58:10;;;;;;;11.20;6.82;;;;;;;8.10;100.00;69290.91;5072789;28;20045;-59
2024/02/11 07:00:42;;;;;;;10.40;6.45;;;;;;;8.07;100.00;69286.84;5072440;28;20757;-60
2024/02/11 07:03:13;;;;;;;9.90;5.68;;;;;;;8.08;100.00;69285.41;5072935;28;20044;-60
2024/02/11 07:05:41;;;;;;;11.18;6.22;;;;;;;8.05;100.00;69284.53;5073805;28;20376;-61
2024/02/11 07:08:11;;;;;;;12.07;6.75;;;;;;;7.98;100.00;69273.78;5072641;28;20040;-60
2024/02/11 07:10:40;;;;;;;10.75;6.45;;;;;;;7.95;100.00;69271.44;5072536;28;20127;-62
2024/02/11 07:13:09;;;;;;;12.40;7.00;;;;;;;8.00;100.00;69279.25;5072786;28;20040;-61
2024/02/11 07:15:37;;;;;;;15.57;9.50;;;;;;;7.92;100.00;69270.53;5072537;28;20048;-60
2024/02/11 07:18:06;;;;;;;18.55;11.55;;;;;;;7.85;100.00;69262.38;5072883;28;20040;-60
2024/02/11 07:20:36;;;;;;;17.60;12.40;;;;;;;7.84;100.00;69258.03;5073150;28;20132;-59
2024/02/11 07:23:05;;;;;;;19.58;12.27;;;;;;;7.84;100.00;69260.63;5073716;28;20533;-60
2024/02/11 07:25:33;;;;;;;19.73;13.07;;;;;;;7.77;100.00;69251.06;5073713;28;20041;-59
2024/02/11 07:28:05;;;;;;;21.55;14.07;;;;;;;7.74;100.00;69249.56;5072455;28;20049;-60
2024/02/11 07:30:34;;;;;;;21.42;14.35;;;;;;;7.68;100.00;69243.19;5072367;28;20040;-59
2024/02/11 07:33:02;;;;;;;21.95;14.43;;;;;;;7.64;100.00;69237.94;5072804;28;20052;-60
2024/02/11 07:35:31;;;;;;;24.30;14.63;;;;;;;7.66;100.00;69237.66;5073108;28;20036;-60
2024/02/11 07:38:02;;;;;;;20.23;13.50;;;;;;;7.62;100.00;69236.19;5072148;28;20503;-60
2024/02/11 07:40:32;;;;;;;20.48;13.52;;;;;;;7.60;100.00;69231.25;5071675;28;20072;-60
2024/02/11 07:43:01;;;;;;;22.33;14.52;;;;;;;7.59;100.00;69238.47;5072157;28;20071;-60
2024/02/11 07:45:29;;;;;;;20.50;13.55;;;;;;;7.57;100.00;69225.75;5072170;28;20033;-60
2024/02/11 07:47:58;;;;;;;21.35;13.75;;;;;;;7.59;100.00;69230.09;5072213;28;20507;-60
2024/02/11 07:50:27;;;;;;;20.27;13.43;;;;;;;7.57;100.00;69230.94;5072054;28;20120;-60
2024/02/11 07:52:55;;;;;;;21.80;12.38;;;;;;;7.59;100.00;69227.50;5072448;28;20126;-61
2024/02/11 07:55:25;;;;;;;20.65;12.25;;;;;;;7.54;100.00;69227.47;5072555;28;20119;-60
2024/02/11 07:57:55;;;;;;;20.77;11.50;;;;;;;7.52;100.00;69227.16;5072057;28;20040;-61
2024/02/11 08:00:23;;;;;;;23.20;11.20;;;;;;;7.50;100.00;69220.22;5071982;28;20054;-61
2024/02/11 08:02:51;;;;;;;22.85;11.18;;;;;;;7.51;100.00;69226.56;5070587;28;20048;-60
2024/02/11 08:05:22;;;;;;;20.73;10.68;;;;;;;7.49;100.00;69223.66;5071836;28;20072;-60
2024/02/11 08:07:52;;;;;;;24.02;11.20;;;;;;;7.41;100.00;69209.72;5070866;28;20055;-60
2024/02/11 08:10:22;;;;;;;17.48;8.57;;;;;;;7.37;100.00;69207.66;5072972;28;20087;-60
2024/02/11 08:12:53;;;;;;;20.70;8.82;;;;;;;7.36;100.00;69207.09;5073149;28;20420;-60
2024/02/11 08:15:21;;;;;;;14.90;8.13;;;;;;;7.37;100.00;69205.06;5072891;28;20126;-61
2024/02/11 08:17:50;;;;;;;21.77;8.30;;;;;;;7.34;100.00;69206.78;5071552;28;20052;-60
2024/02/11 08:20:19;;;;;;;15.90;7.35;;;;;;;7.33;100.00;69205.59;5069981;28;20450;-60
2024/02/11 08:22:48;;;;;;;17.10;7.93;;;;;;;7.37;100.00;69202.47;5071960;28;20407;-60
2024/02/11 08:25:21;;;;;;;16.20;7.38;;;;;;;7.34;100.00;69209.38;5071078;28;20048;-61
2024/02/11 08:27:49;;;;;;;18.20;6.72;;;;;;;7.34;100.00;69202.16;5072003;28;20487;-60
2024/02/11 08:30:21;;;;;;;16.67;7.20;;;;;;;7.27;100.00;69194.59;5075745;28;20067;-60
2024/02/11 08:32:53;;;;;;;20.88;7.97;;;;;;;7.27;100.00;69197.19;5076563;28;20044;-60
2024/02/11 08:35:22;;;;;;;17.10;7.68;;;;;;;7.32;100.00;69199.84;5076174;28;20036;-60
2024/02/11 08:37:50;;;;;;;21.75;7.97;;;;;;;7.35;100.00;69205.31;5075881;28;20041;-59
2024/02/11 08:40:19;;;;;;;18.05;7.00;;;;;;;7.36;100.00;69209.09;5075350;28;20421;-59
2024/02/11 08:42:47;;;;;;;17.88;7.80;;;;;;;7.40;100.00;69205.97;5075645;28;20048;-60
2024/02/11 08:45:16;;;;;;;23.80;8.32;;;;;;;7.36;100.00;69204.50;5075578;28;20048;-61
2024/02/11 08:47:46;;;;;;;19.25;9.23;;;;;;;7.41;100.00;69212.31;5075488;28;20517;-60
2024/02/11 08:50:14;;;;;;;20.48;9.73;;;;;;;7.43;100.00;69210.03;5074943;28;20130;-60
2024/02/11 08:52:43;;;;;;;17.75;9.18;;;;;;;7.46;100.00;69218.16;5075480;28;20052;-60
2024/02/11 08:55:11;;;;;;;24.38;10.57;;;;;;;7.48;100.00;69217.28;5073999;28;20448;-60
2024/02/11 08:57:42;;;;;;;21.75;10.43;;;;;;;7.53;100.00;69228.88;5074764;28;20057;-60
2024/02/11 09:00:13;;;;;;;20.45;10.77;;;;;;;7.55;100.00;69230.63;5074619;28;20040;-60
2024/02/11 09:02:42;;;;;;;21.63;11.48;;;;;;;7.54;100.00;69224.88;5074819;28;20041;-60
2024/02/11 09:05:12;;;;;;;22.45;11.60;;;;;;;7.57;100.00;69232.97;5074312;28;20044;-60
2024/02/11 09:07:42;;;;;;;24.92;13.55;;;;;;;7.59;100.00;69230.09;5074731;28;20102;-60
2024/02/11 09:10:13;;;;;;;25.02;13.57;;;;;;;7.61;100.00;69233.00;5074198;28;20094;-60
2024/02/11 09:12:42;;;;;;;22.33;13.45;;;;;;;7.61;100.00;69232.44;5076239;28;20067;-60
2024/02/11 09:15:11;;;;;;;25.75;13.75;;;;;;;7.67;100.00;69238.84;5075917;28;20036;-60
2024/02/11 09:17:44;;;;;;;24.48;14.38;;;;;;;7.70;100.00;69242.31;5074479;28;20045;-60
2024/02/11 09:20:14;;;;;;;26.60;15.00;;;;;;;7.71;100.00;69248.69;5073986;28;20041;-60
2024/02/11 09:22:42;;;;;;;26.55;14.73;;;;;;;7.73;100.00;69249.00;5074637;28;20101;-60
2024/02/11 09:25:13;;;;;;;25.85;14.35;;;;;;;7.74;100.00;69252.16;5072971;28;20043;-60
2024/02/11 09:27:43;;;;;;;21.48;13.70;;;;;;;7.76;100.00;69249.31;5073742;28;20045;-61
2024/02/11 09:30:15;;;;;;;27.58;14.50;;;;;;;7.80;100.00;69253.97;5075270;28;20068;-60
2024/02/11 09:32:48;;;;;;;21.98;11.85;;;;;;;7.84;100.00;69258.03;5075755;28;20051;-60
2024/02/11 09:35:20;;;;;;;20.98;12.98;;;;;;;7.87;100.00;69264.72;5073242;28;20093;-60
2024/02/11 09:37:51;;;;;;;24.63;12.35;;;;;;;7.90;100.00;69268.19;5074894;28;20181;-61
2024/02/11 09:40:20;;;;;;;21.88;12.43;;;;;;;7.94;100.00;69272.88;5075159;28;20052;-61
2024/02/11 09:42:49;;;;;;;21.30;12.70;;;;;;;7.97;100.00;69275.78;5075298;28;20135;-60
2024/02/11 09:45:18;;;;;;;23.27;11.95;;;;;;;8.03;100.00;69282.19;5075010;28;20052;-61
2024/02/11 09:47:50;;;;;;;23.60;12.43;;;;;;;8.09;100.00;69289.19;5075155;28;20053;-60
2024/02/11 09:50:21;;;;;;;23.50;12.82;;;;;;;8.15;100.00;69295.59;5073973;28;20483;-60
2024/02/11 09:52:51;;;;;;;20.42;12.40;;;;;;;8.18;100.00;69299.06;5073046;28;20048;-60
2024/02/11 09:55:22;;;;;;;22.88;11.73;;;;;;;8.25;100.00;69307.25;5074895;28;20380;-61
2024/02/11 09:57:51;;;;;;;23.15;12.25;;;;;;;8.27;100.00;69312.16;5074876;28;20131;-60
2024/02/11 10:00:21;;;;;;;21.33;12.95;;;;;;;8.32;100.00;69314.78;5072683;28;20442;-61
2024/02/11 10:02:50;;;;;;;25.05;11.43;;;;;;;8.33;100.00;69318.56;5072659;28;20135;-60
2024/02/11 10:05:24;;;;;;;25.25;11.80;;;;;;;8.36;100.00;69319.47;5074186;28;20484;-60
2024/02/11 10:07:55;;;;;;;22.75;12.45;;;;;;;8.40;100.00;69322.09;5073688;28;20542;-61
2024/02/11 10:10:23;;;;;;;22.98;12.52;;;;;;;8.41;100.00;69323.28;5071074;28;20125;-60
2024/02/11 10:12:52;;;;;;;26.55;12.73;;;;;;;8.44;100.00;69331.41;5071950;28;20523;-60
2024/02/11 10:15:21;;;;;;;22.88;11.95;;;;;;;8.46;100.00;69336.34;5072238;28;20114;-61
2024/02/11 10:17:49;;;;;;;25.90;13.63;;;;;;;8.44;100.00;69326.19;5072224;28;20048;-61
2024/02/11 10:20:18;;;;;;;24.30;13.20;;;;;;;8.43;100.00;69325.59;5074247;28;20048;-60
2024/02/11 10:22:48;;;;;;;22.25;12.57;;;;;;;8.46;100.00;69326.50;5072017;28;20768;-60
2024/02/11 10:25:18;;;;;;;25.27;12.57;;;;;;;8.46;100.00;69331.72;5069666;28;20238;-60
2024/02/11 10:27:46;;;;;;;24.05;13.68;;;;;;;8.51;100.00;69333.78;5071850;28;20056;-60
2024/02/11 10:30:15;;;;;;;26.67;13.05;;;;;;;8.53;100.00;69341.88;5070204;28;20049;-61
2024/02/11 10:32:43;;;;;;;29.83;14.68;;;;;;;8.54;100.00;69339.88;5071646;28;20135;-61
2024/02/11 10:35:14;;;;;;;26.13;14.93;;;;;;;8.61;100.00;69345.44;5073910;28;20045;-60
2024/02/11 10:37:45;;;;;;;29.25;15.23;;;;;;;8.66;100.00;69351.25;5074424;28;20052;-61
2024/02/11 10:40:19;;;;;;;28.65;14.18;;;;;;;8.70;100.00;69357.94;5071190;28;20500;-61
2024/02/11 10:42:50;;;;;;;24.35;16.15;;;;;;;8.73;100.00;69362.00;5070083;28;20087;-60
2024/02/11 10:45:18;;;;;;;28.20;15.63;;;;;;;8.74;100.00;69362.59;5073662;28;20083;-61
2024/02/11 10:47:47;;;;;;;27.50;14.88;;;;;;;8.74;100.00;69360.00;5074326;28;20064;-61
2024/02/11 10:50:17;;;;;;;29.55;16.13;;;;;;;8.76;100.00;69364.94;5072579;28;20064;-61
2024/02/11 10:52:49;;;;;;;32.05;15.07;;;;;;;8.73;100.00;69358.84;5071247;28;20076;-62
2024/02/11 10:55:23;;;;;;;28.73;15.23;;;;;;;8.71;100.00;69359.09;5068364;28;20041;-61
2024/02/11 10:57:53;;;;;;;25.00;13.82;;;;;;;8.69;100.00;69354.19;5070524;28;20428;-61
2024/02/11 11:00:24;;;;;;;27.58;15.02;;;;;;;8.58;100.00;69344.53;5071837;28;21086;-60
2024/02/11 11:02:55;;;;;;;26.13;13.85;;;;;;;8.62;100.00;69347.19;5072252;28;20123;-60
2024/02/11 11:05:27;;;;;;;23.42;12.88;;;;;;;8.60;100.00;69347.47;5070522;28;20210;-60
2024/02/11 11:07:58;;;;;;;23.58;13.40;;;;;;;8.58;100.00;69347.72;5072820;28;20040;-61
2024/02/11 11:10:35;;;;;;;23.17;12.32;;;;;;;8.59;100.00;69346.28;5072335;28;20168;-61
2024/02/11 11:13:03;;;;;;;22.52;11.25;;;;;;;8.58;100.00;69344.53;5072373;28;20060;-61
2024/02/11 11:15:32;;;;;;;27.02;11.18;;;;;;;8.55;100.00;69339.03;5073414;28;20495;-60
2024/02/11 11:18:02;;;;;;;23.55;12.30;;;;;;;8.59;100.00;69341.09;5073522;28;20120;-61
2024/02/11 11:20:33;;;;;;;21.23;11.20;;;;;;;8.63;100.00;69348.34;5073358;28;20076;-60
2024/02/11 11:23:02;;;;;;;24.98;11.60;;;;;;;8.65;100.00;69352.13;5072875;28;20500;-60
2024/02/11 11:25:32;;;;;;;19.30;10.98;;;;;;;8.68;100.00;69355.59;5073335;28;20037;-60
2024/02/11 11:28:15;;;;;;;21.35;11.75;;;;;;;8.69;100.00;69354.19;5071950;28;20048;-61
2024/02/11 11:30:44;;;;;;;26.08;10.60;;;;;;;8.60;100.00;69342.25;5070567;28;20049;-60